Terminal Aerodrome Forecast
Issued by NWS Wilmington, NC

Home | Current Version | Previous Version | Text Only | Print | Product List | Glossary On
Versions: 1 2 3 4 5 6 7 8 9 10 11 12 13 14 15 16
000
FTUS42 KILM 191700
TAFILM
TAF
KILM 191721Z 1918/2018 02010G18KT 4SM -DZ BR VCSH OVC006
     FM192100 02010G20KT 3SM -RA BR OVC006
     FM200500 03015G25KT 6SM -RA OVC008
     FM201000 02015G30KT P6SM -RA SCT008 OVC012=

USA.gov is the U.S. government's official web portal to all federal, state and local government web resources and services.